Time;durP1;ratioP1;P1;durP2;ratioP2;P2;SDS_P1;SDS_P2;PMS_P1;PMS_P2;Temp;Humidity;BMP_temperature;BMP_pressure;BME280_temperature;BME280_humidity;BME280_pressure;Samples;Min_cycle;Max_cycle;Signal;HPM_P1;HPM_P2
2021/07/30 00:01:14;;;;;;;2.75;2.55;;;;;;;21.12;58.66;100378.78;5009002;28;20038;-44
2021/07/30 00:03:39;;;;;;;2.78;2.58;;;;;;;21.10;58.33;100371.75;5010690;28;20034;-43
2021/07/30 00:06:05;;;;;;;2.78;2.58;;;;;;;21.11;58.42;100376.19;5017193;28;20546;-43
2021/07/30 00:08:33;;;;;;;3.65;2.47;;;;;;;21.09;57.80;100365.53;5012554;28;20034;-43
2021/07/30 00:10:58;;;;;;;3.20;2.90;;;;;;;21.10;57.58;100372.63;5012249;28;20057;-44
2021/07/30 00:13:24;;;;;;;2.72;2.53;;;;;;;21.10;57.25;100367.25;5012307;28;20064;-44
2021/07/30 00:15:52;;;;;;;3.05;2.80;;;;;;;21.10;58.14;100364.59;5011028;28;20109;-43
2021/07/30 00:18:20;;;;;;;2.63;2.42;;;;;;;21.08;57.88;100363.81;5011629;28;20025;-43
2021/07/30 00:20:49;;;;;;;2.72;2.53;;;;;;;21.08;57.57;100374.53;5015198;28;20026;-43
2021/07/30 00:23:14;;;;;;;2.67;2.47;;;;;;;21.07;58.11;100372.78;5010880;28;20116;-43
2021/07/30 00:25:39;;;;;;;2.83;2.63;;;;;;;21.06;57.86;100363.03;5011133;28;20026;-43
2021/07/30 00:28:05;;;;;;;3.08;2.78;;;;;;;21.06;58.20;100371.06;5007804;28;20044;-44
2021/07/30 00:30:30;;;;;;;2.95;2.75;;;;;;;21.05;57.21;100361.31;5011340;28;20811;-43
2021/07/30 00:32:56;;;;;;;3.10;2.90;;;;;;;21.05;57.50;100361.31;5018768;28;20061;-43
2021/07/30 00:35:24;;;;;;;3.90;2.25;;;;;;;21.05;57.59;100365.81;5015597;28;20105;-43
2021/07/30 00:37:50;;;;;;;3.22;2.90;;;;;;;21.03;57.09;100371.25;5018152;28;20025;-43
2021/07/30 00:40:15;;;;;;;2.83;2.60;;;;;;;21.02;57.79;100372.22;5011037;28;20021;-44
2021/07/30 00:42:51;;;;;;;3.72;3.00;;;;;;;21.01;56.79;100365.13;5020186;28;20026;-44
2021/07/30 00:45:17;;;;;;;3.50;3.20;;;;;;;21.01;57.50;100365.97;5012969;28;20030;-45
2021/07/30 00:47:43;;;;;;;3.33;3.03;;;;;;;21.01;56.92;100368.66;5008706;28;20032;-45
2021/07/30 00:50:08;;;;;;;3.40;3.10;;;;;;;21.00;57.27;100368.75;5016378;28;20030;-45
2021/07/30 00:52:40;;;;;;;3.10;2.90;;;;;;;21.00;57.10;100368.75;5008290;28;20048;-45
2021/07/30 00:55:08;;;;;;;3.42;2.85;;;;;;;20.98;57.21;100365.31;4990033;28;20070;-49
2021/07/30 00:57:36;;;;;;;3.60;3.30;;;;;;;20.96;56.97;100360.03;4989406;28;20024;-42
2021/07/30 01:00:02;;;;;;;2.83;2.63;;;;;;;20.96;57.13;100368.06;5010489;28;20137;-42
2021/07/30 01:02:27;;;;;;;3.63;3.33;;;;;;;20.96;56.63;100359.16;5011663;28;20517;-42
2021/07/30 01:04:53;;;;;;;2.80;2.60;;;;;;;20.94;56.77;100372.63;4991169;28;20038;-42
2021/07/30 01:07:18;;;;;;;3.20;3.00;;;;;;;20.93;56.96;100362.88;5012351;28;20026;-42
2021/07/30 01:09:43;;;;;;;3.42;2.80;;;;;;;20.92;56.78;100361.16;5012794;28;20468;-41
2021/07/30 01:12:09;;;;;;;3.05;2.67;;;;;;;20.93;56.54;100370.03;5010973;28;20026;-43
2021/07/30 01:14:35;;;;;;;2.92;2.72;;;;;;;20.90;56.68;100373.78;5008920;28;20022;-44
2021/07/30 01:17:00;;;;;;;3.58;3.10;;;;;;;20.90;56.64;100371.09;5013549;28;20448;-45
2021/07/30 01:19:26;;;;;;;2.78;2.58;;;;;;;20.90;56.36;100368.41;5010860;28;20038;-44
2021/07/30 01:21:55;;;;;;;2.92;2.72;;;;;;;20.89;56.60;100372.06;5013348;28;20026;-44
2021/07/30 01:24:22;;;;;;;2.80;2.45;;;;;;;20.89;56.42;100366.69;5016681;28;20081;-44
2021/07/30 01:26:51;;;;;;;3.13;2.92;;;;;;;20.87;56.50;100366.75;5008134;28;20034;-43
2021/07/30 01:29:17;;;;;;;3.67;2.70;;;;;;;20.87;56.48;100366.75;4995062;28;20021;-43
2021/07/30 01:31:42;;;;;;;3.60;3.30;;;;;;;20.87;56.41;100366.75;5013327;28;20530;-43
2021/07/30 01:34:07;;;;;;;3.50;3.00;;;;;;;20.87;56.29;100372.09;5011611;28;20113;-44
2021/07/30 01:36:33;;;;;;;2.72;2.53;;;;;;;20.85;56.46;100368.66;5014092;28;20021;-43
2021/07/30 01:38:58;;;;;;;3.33;3.03;;;;;;;20.84;56.37;100372.28;5012805;28;20038;-43
2021/07/30 01:41:24;;;;;;;3.42;3.13;;;;;;;20.84;56.30;100380.31;5010328;28;20040;-43
2021/07/30 01:43:49;;;;;;;2.47;2.38;;;;;;;20.83;56.39;100362.50;5019117;28;20075;-43
2021/07/30 01:46:14;;;;;;;3.30;3.00;;;;;;;20.82;56.43;100371.53;5019235;28;20088;-43
2021/07/30 01:48:40;;;;;;;3.10;2.80;;;;;;;20.81;56.49;100364.41;5016360;28;20029;-43
2021/07/30 01:51:05;;;;;;;3.47;3.17;;;;;;;20.81;56.37;100367.09;5019332;28;20036;-45
2021/07/30 01:53:31;;;;;;;2.95;2.75;;;;;;;20.80;56.39;100370.72;5017134;28;20081;-43
2021/07/30 01:56:03;;;;;;;2.90;2.70;;;;;;;20.79;56.38;100368.13;5016325;28;21293;-43
2021/07/30 01:58:33;;;;;;;3.60;3.28;;;;;;;20.77;56.42;100363.72;5011475;28;20069;-44
2021/07/30 02:00:59;;;;;;;4.40;2.95;;;;;;;20.77;56.40;100365.53;5017268;28;20122;-46
2021/07/30 02:03:24;;;;;;;3.15;2.55;;;;;;;20.75;56.45;100370.13;5021506;28;20573;-42
2021/07/30 02:05:49;;;;;;;4.78;3.05;;;;;;;20.75;56.31;100373.66;5016308;28;20072;-42
2021/07/30 02:08:15;;;;;;;3.13;2.92;;;;;;;20.74;56.55;100379.13;5016223;28;20453;-42
2021/07/30 02:10:43;;;;;;;3.75;3.40;;;;;;;20.71;56.47;100372.09;5017544;28;20101;-42
2021/07/30 02:15:53;;;;;;;3.47;3.20;;;;;;;20.72;56.33;100375.66;5013996;28;20561;-44
2021/07/30 02:18:18;;;;;;;3.35;3.05;;;;;;;20.71;56.31;100373.94;5011091;28;20054;-42
2021/07/30 02:20:43;;;;;;;3.75;3.45;;;;;;;20.71;56.45;100381.97;5013017;28;20108;-42
2021/07/30 02:23:08;;;;;;;3.50;3.20;;;;;;;20.70;56.36;100372.19;5014372;28;20044;-45
2021/07/30 02:25:34;;;;;;;2.95;2.65;;;;;;;20.69;56.43;100368.66;5011622;28;20026;-42
2021/07/30 02:27:59;;;;;;;3.70;2.97;;;;;;;20.69;56.43;100365.13;5002056;28;20029;-42
2021/07/30 02:30:28;;;;;;;3.30;3.00;;;;;;;20.67;56.39;100367.03;5011176;28;20048;-42
2021/07/30 02:32:53;;;;;;;3.00;2.80;;;;;;;20.66;56.39;100365.28;5011489;28;20026;-43
2021/07/30 02:35:21;;;;;;;2.90;2.70;;;;;;;20.66;56.17;100373.31;5014655;28;20029;-43
2021/07/30 02:37:47;;;;;;;3.83;3.42;;;;;;;20.64;56.36;100379.63;5013416;28;20026;-43
2021/07/30 02:40:13;;;;;;;3.35;3.05;;;;;;;20.63;56.33;100366.31;4992689;28;20045;-45
2021/07/30 02:42:38;;;;;;;3.40;3.10;;;;;;;20.61;56.40;100366.41;5010958;28;20022;-45
2021/07/30 02:45:04;;;;;;;3.10;2.85;;;;;;;20.61;56.37;100366.41;5009829;28;20049;-43
2021/07/30 02:47:29;;;;;;;4.03;3.33;;;;;;;20.59;56.37;100365.66;5011739;28;20025;-41
2021/07/30 02:49:54;;;;;;;3.25;3.05;;;;;;;20.59;56.52;100365.66;5009376;28;20176;-44
2021/07/30 02:52:20;;;;;;;3.55;3.25;;;;;;;20.60;56.33;100359.34;5018038;28;20029;-43
2021/07/30 02:54:45;;;;;;;2.90;2.63;;;;;;;20.58;56.29;100361.22;5011460;28;20029;-43
2021/07/30 02:57:10;;;;;;;3.72;3.28;;;;;;;20.56;56.43;100355.09;5009678;28;20033;-43
2021/07/30 02:59:35;;;;;;;3.03;2.65;;;;;;;20.56;56.43;100371.16;5011344;28;20395;-43
2021/07/30 03:02:01;;;;;;;3.28;3.00;;;;;;;20.55;56.38;100366.78;5014965;28;20121;-43
2021/07/30 03:04:26;;;;;;;3.72;3.22;;;;;;;20.55;56.42;100358.75;5012949;28;20060;-43
2021/07/30 03:06:51;;;;;;;3.03;2.72;;;;;;;20.55;56.44;100357.88;5013438;28;20484;-43
2021/07/30 03:09:17;;;;;;;3.38;3.08;;;;;;;20.52;56.38;100358.91;5012943;28;20030;-43
2021/07/30 03:11:42;;;;;;;3.50;3.20;;;;;;;20.52;56.58;100358.91;5011400;28;20373;-42
2021/07/30 03:14:07;;;;;;;3.60;3.30;;;;;;;20.50;56.46;100366.16;5015323;28;20065;-43
2021/07/30 03:16:33;;;;;;;3.85;3.38;;;;;;;20.50;56.52;100355.44;5015186;28;20026;-43
2021/07/30 03:18:58;;;;;;;3.42;3.13;;;;;;;20.51;56.46;100362.53;5009371;28;20054;-45
2021/07/30 03:21:24;;;;;;;3.38;3.13;;;;;;;20.47;56.73;100363.66;5011306;28;20083;-43
2021/07/30 03:23:49;;;;;;;3.35;3.05;;;;;;;20.47;56.57;100356.47;5006683;28;20033;-44
2021/07/30 03:26:14;;;;;;;3.80;2.97;;;;;;;20.47;56.43;100361.00;4993839;28;20033;-45
2021/07/30 03:28:40;;;;;;;3.20;2.90;;;;;;;20.45;56.47;100352.16;5015403;28;20032;-45
2021/07/30 03:31:05;;;;;;;3.20;3.00;;;;;;;20.47;56.55;100355.63;5017814;28;20112;-42
2021/07/30 03:33:30;;;;;;;3.15;2.95;;;;;;;20.44;56.49;100353.97;5014328;28;20033;-47
2021/07/30 03:35:56;;;;;;;3.67;3.25;;;;;;;20.44;56.59;100350.44;5015326;28;20036;-44
2021/07/30 03:38:21;;;;;;;4.13;2.90;;;;;;;20.42;56.78;100363.03;5020920;28;20057;-44
2021/07/30 03:40:46;;;;;;;4.05;3.00;;;;;;;20.41;56.52;100351.47;5022022;28;20076;-43
2021/07/30 03:43:12;;;;;;;3.40;3.10;;;;;;;20.42;56.54;100355.00;5007000;28;20045;-42
2021/07/30 03:45:38;;;;;;;3.42;3.15;;;;;;;20.39;56.66;100358.72;5010429;28;20088;-49
2021/07/30 03:48:03;;;;;;;3.47;3.17;;;;;;;20.38;56.43;100360.53;5009780;28;20047;-42
2021/07/30 03:50:29;;;;;;;3.35;3.05;;;;;;;20.37;56.36;100357.94;5004047;28;20057;-42
2021/07/30 03:52:54;;;;;;;3.40;3.20;;;;;;;20.35;56.41;100355.38;4982657;28;20106;-41
2021/07/30 03:55:20;;;;;;;3.53;3.22;;;;;;;20.34;56.46;100356.28;5002345;28;20033;-46
2021/07/30 03:57:45;;;;;;;3.90;3.50;;;;;;;20.36;56.44;100357.09;4975724;28;20190;-41
2021/07/30 04:00:11;;;;;;;3.20;2.90;;;;;;;20.34;56.59;100361.66;4997321;28;20054;-41
2021/07/30 04:02:36;;;;;;;3.03;2.80;;;;;;;20.34;56.48;100360.81;5013756;28;20091;-42
2021/07/30 04:05:02;;;;;;;3.78;3.35;;;;;;;20.33;56.53;100362.59;4977843;28;21289;-43
2021/07/30 04:07:27;;;;;;;4.00;3.60;;;;;;;20.33;56.62;100365.28;5000231;28;20034;-43
2021/07/30 04:09:54;;;;;;;3.30;3.10;;;;;;;20.32;56.63;100362.69;5007050;28;20128;-43
2021/07/30 04:12:20;;;;;;;3.70;3.42;;;;;;;20.31;56.48;100366.31;4988775;28;20032;-42
2021/07/30 04:14:46;;;;;;;3.53;3.13;;;;;;;20.31;56.43;100372.53;4992300;28;20596;-41
2021/07/30 04:17:11;;;;;;;3.10;2.85;;;;;;;20.30;56.53;100370.81;4991316;28;20048;-41
2021/07/30 04:19:37;;;;;;;3.55;3.25;;;;;;;20.27;56.49;100370.97;5000539;28;20065;-42
2021/07/30 04:22:02;;;;;;;3.25;2.83;;;;;;;20.29;56.40;100374.44;4999453;28;20030;-42
2021/07/30 04:24:28;;;;;;;3.40;3.10;;;;;;;20.28;56.21;100375.41;4999781;28;20087;-41
2021/07/30 04:26:53;;;;;;;3.42;3.13;;;;;;;20.28;56.28;100370.03;5024193;28;20467;-42
2021/07/30 04:29:19;;;;;;;3.22;2.92;;;;;;;20.27;56.33;100365.59;4986378;28;20029;-43
2021/07/30 04:31:44;;;;;;;3.40;3.15;;;;;;;20.26;56.33;100369.25;5010121;28;20080;-42
2021/07/30 04:34:09;;;;;;;5.43;3.13;;;;;;;20.24;56.55;100365.81;5002757;28;20147;-42
2021/07/30 04:36:35;;;;;;;3.50;3.20;;;;;;;20.22;56.46;100365.00;4998618;28;20017;-43
2021/07/30 04:39:01;;;;;;;3.33;3.03;;;;;;;20.23;56.69;100369.41;4982123;28;20036;-43
2021/07/30 04:41:26;;;;;;;3.08;2.88;;;;;;;20.23;56.43;100372.97;5000831;28;20025;-45
2021/07/30 04:43:51;;;;;;;3.90;3.47;;;;;;;20.22;56.37;100370.38;4990324;28;20495;-43
2021/07/30 04:46:18;;;;;;;3.53;3.22;;;;;;;20.20;56.37;100377.59;4982260;28;20041;-44
2021/07/30 04:48:44;;;;;;;4.80;3.20;;;;;;;20.20;56.53;100374.91;5007938;28;20029;-45
2021/07/30 04:51:11;;;;;;;3.42;3.13;;;;;;;20.21;56.64;100368.66;5001211;28;20033;-44
2021/07/30 04:53:36;;;;;;;3.45;3.15;;;;;;;20.21;56.29;100371.31;4990423;28;20021;-44
2021/07/30 04:56:02;;;;;;;3.75;3.35;;;;;;;20.18;56.58;100367.00;4997542;28;20038;-44
2021/07/30 04:58:27;;;;;;;3.05;2.85;;;;;;;20.17;56.50;100372.44;5008584;28;20038;-44
2021/07/30 05:00:52;;;;;;;3.72;3.30;;;;;;;20.16;56.49;100366.22;5016490;28;20053;-43
2021/07/30 05:03:18;;;;;;;3.20;2.90;;;;;;;20.18;56.56;100371.47;4980633;28;20365;-44
2021/07/30 05:05:43;;;;;;;4.78;3.30;;;;;;;20.17;56.76;100375.13;4993423;28;20022;-44
2021/07/30 05:08:08;;;;;;;3.72;3.20;;;;;;;20.16;56.76;100366.22;5014931;28;20029;-44
2021/07/30 05:10:34;;;;;;;3.17;2.88;;;;;;;20.16;56.61;100365.34;4998712;28;20081;-44
2021/07/30 05:12:59;;;;;;;3.28;3.08;;;;;;;20.15;56.69;100363.63;5008463;28;20044;-44
2021/07/30 05:15:25;;;;;;;2.67;2.47;;;;;;;20.15;56.59;100360.94;4969091;28;20022;-44
2021/07/30 05:17:50;;;;;;;3.20;2.90;;;;;;;20.13;56.72;100359.22;4992580;28;20018;-44
2021/07/30 05:20:15;;;;;;;3.42;3.00;;;;;;;20.13;56.78;100364.56;4978090;28;20043;-44
2021/07/30 05:22:41;;;;;;;3.22;2.95;;;;;;;20.12;56.79;100364.66;4993734;28;20105;-45
2021/07/30 05:25:10;;;;;;;3.15;2.75;;;;;;;20.11;56.82;100365.59;4985281;28;20053;-44
2021/07/30 05:27:35;;;;;;;3.50;3.20;;;;;;;20.11;56.79;100365.59;4966602;28;20100;-44
2021/07/30 05:30:00;;;;;;;3.33;3.05;;;;;;;20.11;56.83;100365.59;4986271;28;20040;-45
2021/07/30 05:32:26;;;;;;;3.53;3.22;;;;;;;20.11;56.95;100370.97;4978790;28;20072;-45
2021/07/30 05:34:51;;;;;;;3.20;2.90;;;;;;;20.07;57.08;100364.88;5016363;28;20418;-43
2021/07/30 05:37:17;;;;;;;3.30;3.00;;;;;;;20.07;56.97;100367.56;4980364;28;20033;-45
2021/07/30 05:39:42;;;;;;;3.03;2.83;;;;;;;20.07;56.81;100375.59;4984660;28;20026;-44
2021/07/30 05:42:07;;;;;;;2.70;2.50;;;;;;;20.06;56.94;100376.56;5006803;28;20071;-44
2021/07/30 05:44:33;;;;;;;3.33;3.03;;;;;;;20.06;56.98;100365.84;4997929;28;20558;-44
2021/07/30 05:46:58;;;;;;;3.30;3.00;;;;;;;20.04;57.25;100362.38;5018894;28;20040;-44
2021/07/30 05:49:24;;;;;;;3.35;3.08;;;;;;;20.05;56.95;100358.78;4985747;28;20025;-44
2021/07/30 05:51:49;;;;;;;3.80;3.03;;;;;;;20.03;57.04;100363.34;4997047;28;20014;-44
2021/07/30 05:54:15;;;;;;;3.55;3.25;;;;;;;20.04;56.99;100362.38;4999943;28;20044;-45
2021/07/30 05:56:40;;;;;;;3.60;3.30;;;;;;;20.00;57.04;100359.00;5001485;28;20033;-45
2021/07/30 05:59:05;;;;;;;3.53;3.22;;;;;;;20.02;57.07;100361.59;4993167;28;20026;-45
2021/07/30 06:01:31;;;;;;;3.72;3.35;;;;;;;20.00;56.92;100364.38;5016174;28;20038;-43
2021/07/30 06:03:56;;;;;;;3.10;2.90;;;;;;;19.99;56.94;100356.38;4997026;28;20077;-45
2021/07/30 06:06:21;;;;;;;5.55;2.90;;;;;;;19.99;56.86;100362.66;5004671;28;20502;-44
2021/07/30 06:08:47;;;;;;;2.85;2.65;;;;;;;19.98;56.96;100366.22;5021717;28;20036;-45
2021/07/30 06:11:12;;;;;;;2.97;2.70;;;;;;;20.00;57.03;100363.50;5017815;28;20160;-44
2021/07/30 06:13:38;;;;;;;3.75;3.30;;;;;;;19.98;57.18;100360.84;4981837;28;20025;-44
2021/07/30 06:16:07;;;;;;;3.65;3.20;;;;;;;19.98;57.06;100354.66;5020272;28;20057;-45
2021/07/30 06:18:32;;;;;;;3.17;2.97;;;;;;;19.97;57.03;100358.25;4979717;28;20028;-44
2021/07/30 06:20:57;;;;;;;3.63;2.75;;;;;;;19.97;56.95;100358.25;5012735;28;20394;-44
2021/07/30 06:23:23;;;;;;;3.25;2.95;;;;;;;19.97;57.14;100352.91;5009700;28;20022;-44
2021/07/30 06:25:48;;;;;;;3.42;3.22;;;;;;;19.95;57.44;100349.47;4986930;28;20036;-45
2021/07/30 06:28:13;;;;;;;3.38;3.17;;;;;;;19.95;57.69;100360.19;5002742;28;20559;-44
2021/07/30 06:30:39;;;;;;;3.55;3.28;;;;;;;19.92;57.39;100361.22;4980789;28;20103;-44
2021/07/30 06:33:10;;;;;;;2.90;2.70;;;;;;;19.92;57.29;100361.22;4995058;28;20032;-44
2021/07/30 06:35:36;;;;;;;3.72;3.42;;;;;;;19.90;57.90;100363.09;5016043;28;20388;-45
2021/07/30 06:38:02;;;;;;;3.60;3.30;;;;;;;19.92;57.23;100365.69;5003198;28;20017;-45
2021/07/30 06:40:27;;;;;;;3.28;2.97;;;;;;;19.90;58.16;100357.72;5006709;28;20083;-45
2021/07/30 06:42:53;;;;;;;4.50;3.30;;;;;;;19.93;57.66;100359.38;5008937;28;20040;-44
2021/07/30 06:45:18;;;;;;;3.88;3.10;;;;;;;19.88;57.70;100355.13;4978102;28;20471;-43
2021/07/30 06:47:43;;;;;;;3.08;2.75;;;;;;;19.90;57.66;100351.53;4998320;28;20608;-43
2021/07/30 06:50:09;;;;;;;3.33;3.00;;;;;;;19.87;58.04;100353.41;4980320;28;20083;-44
2021/07/30 06:52:34;;;;;;;2.83;2.63;;;;;;;19.87;58.46;100358.78;5011355;28;20028;-44
2021/07/30 06:55:00;;;;;;;3.17;2.83;;;;;;;19.86;58.21;100351.69;5012298;28;20533;-44
2021/07/30 06:57:25;;;;;;;4.15;3.38;;;;;;;19.87;57.73;100349.88;5019906;28;20475;-44
2021/07/30 06:59:51;;;;;;;4.78;3.10;;;;;;;19.86;58.03;100346.34;5019041;28;20052;-44
2021/07/30 07:02:16;;;;;;;3.50;3.20;;;;;;;19.86;58.10;100345.47;4988079;28;20083;-44
2021/07/30 07:04:42;;;;;;;3.33;3.03;;;;;;;19.85;58.01;100339.25;5010386;28;20045;-44
2021/07/30 07:07:07;;;;;;;3.38;3.15;;;;;;;19.86;58.41;100340.13;4985567;28;20510;-44
2021/07/30 07:09:33;;;;;;;3.40;3.10;;;;;;;19.85;58.08;100341.06;4999091;28;20030;-44
2021/07/30 07:11:58;;;;;;;3.65;3.15;;;;;;;19.84;57.78;100332.16;4979742;28;20034;-44
2021/07/30 07:14:23;;;;;;;2.97;2.70;;;;;;;19.84;57.29;100339.34;5014578;28;20018;-43
2021/07/30 07:16:49;;;;;;;3.53;3.33;;;;;;;19.82;58.08;100331.41;4998390;28;20087;-45
2021/07/30 07:19:14;;;;;;;3.05;2.85;;;;;;;19.84;57.80;100334.84;4996462;28;20075;-45
2021/07/30 07:21:40;;;;;;;3.60;3.30;;;;;;;19.84;57.66;100331.31;5014625;28;20029;-44
2021/07/30 07:24:06;;;;;;;3.40;3.10;;;;;;;19.82;57.77;100326.06;4984647;28;20480;-45
2021/07/30 07:26:32;;;;;;;3.25;2.95;;;;;;;19.83;57.88;100329.56;4996363;28;20037;-45
2021/07/30 07:28:57;;;;;;;3.80;3.50;;;;;;;19.82;57.33;100319.81;4996272;28;20105;-44
2021/07/30 07:31:23;;;;;;;4.45;3.30;;;;;;;19.81;57.58;100326.97;5018117;28;20180;-44
2021/07/30 07:33:48;;;;;;;3.75;3.35;;;;;;;19.83;57.75;100322.41;5016865;28;20214;-44
2021/07/30 07:36:13;;;;;;;3.30;3.10;;;;;;;19.82;57.85;100323.38;5012288;28;20498;-44
2021/07/30 07:38:39;;;;;;;3.70;3.40;;;;;;;19.81;57.62;100320.78;5015986;28;20018;-44
2021/07/30 07:41:04;;;;;;;3.67;3.33;;;;;;;19.82;57.56;100320.69;5013646;28;20022;-44
2021/07/30 07:43:29;;;;;;;3.55;3.25;;;;;;;19.81;57.67;100310.06;5011876;28;20107;-44
2021/07/30 07:45:55;;;;;;;3.40;3.10;;;;;;;19.82;57.59;100320.69;5010353;28;20450;-44
2021/07/30 07:48:20;;;;;;;3.90;3.60;;;;;;;19.83;57.79;100314.41;4994921;28;20076;-44
2021/07/30 07:50:46;;;;;;;4.22;3.22;;;;;;;19.82;57.58;100317.16;5012916;28;20025;-41
2021/07/30 07:53:16;;;;;;;3.92;3.63;;;;;;;19.84;57.83;100310.75;5016454;28;20025;-42
2021/07/30 07:55:41;;;;;;;3.50;3.00;;;;;;;19.83;57.40;100314.41;5009753;28;20026;-43
2021/07/30 07:58:07;;;;;;;3.45;3.15;;;;;;;19.84;57.96;100309.91;5014594;28;20052;-42
2021/07/30 08:00:33;;;;;;;3.88;3.58;;;;;;;19.83;57.94;100313.53;5011360;28;20064;-43
2021/07/30 08:02:58;;;;;;;3.90;3.60;;;;;;;19.86;57.82;100313.34;4975987;28;20143;-43
2021/07/30 08:05:24;;;;;;;3.90;3.38;;;;;;;19.83;57.82;100303.69;4983745;28;20633;-43
2021/07/30 08:07:49;;;;;;;4.00;3.05;;;;;;;19.86;57.88;100306.22;4995942;28;20022;-43
2021/07/30 08:10:15;;;;;;;3.60;3.30;;;;;;;19.85;57.72;100307.13;4980745;28;20025;-43
2021/07/30 08:12:40;;;;;;;3.92;3.63;;;;;;;19.87;57.77;100305.25;4997204;28;20409;-43
2021/07/30 08:15:06;;;;;;;4.65;3.70;;;;;;;19.87;57.24;100302.56;4977807;28;20018;-43
2021/07/30 08:17:34;;;;;;;4.10;3.70;;;;;;;19.84;57.64;100293.88;4994907;28;20045;-43
2021/07/30 08:19:59;;;;;;;3.83;3.53;;;;;;;19.85;57.41;100295.59;4990624;28;20117;-43
2021/07/30 08:22:25;;;;;;;3.70;2.92;;;;;;;19.84;57.59;100292.03;4995174;28;20149;-43
2021/07/30 08:24:50;;;;;;;5.15;4.03;;;;;;;19.84;57.39;100293.88;4978407;28;20387;-43
2021/07/30 08:27:15;;;;;;;3.75;3.38;;;;;;;19.84;57.55;100297.38;5010872;28;20425;-43
2021/07/30 08:29:44;;;;;;;4.50;4.10;;;;;;;19.83;57.70;100295.66;4995178;28;20107;-43
2021/07/30 08:32:09;;;;;;;3.65;3.33;;;;;;;19.84;57.67;100289.34;5015313;28;20036;-43
2021/07/30 08:34:38;;;;;;;3.97;3.50;;;;;;;19.81;57.75;100284.16;5014058;28;20041;-43
2021/07/30 08:37:04;;;;;;;4.20;3.50;;;;;;;19.82;57.49;100285.91;4997287;28;20396;-43
2021/07/30 08:39:29;;;;;;;4.22;3.80;;;;;;;19.79;57.52;100291.44;5015018;28;20030;-43
2021/07/30 08:41:59;;;;;;;4.45;3.97;;;;;;;19.82;57.35;100291.28;5009664;28;20021;-43
2021/07/30 08:44:25;;;;;;;3.95;3.65;;;;;;;19.85;58.21;100296.44;4978266;28;20030;-43
2021/07/30 08:46:51;;;;;;;4.55;3.85;;;;;;;19.80;57.87;100287.81;4997449;28;20025;-43
2021/07/30 08:49:17;;;;;;;4.45;3.78;;;;;;;19.81;57.42;100291.34;4993706;28;20100;-43
2021/07/30 08:51:45;;;;;;;5.25;3.58;;;;;;;19.81;57.51;100284.16;4999287;28;20053;-43
2021/07/30 08:54:10;;;;;;;4.05;3.65;;;;;;;19.80;57.28;100290.47;4995578;28;20021;-42
2021/07/30 08:56:37;;;;;;;4.18;3.67;;;;;;;19.81;57.35;100288.69;4994718;28;20026;-43
2021/07/30 08:59:02;;;;;;;4.20;3.88;;;;;;;19.81;57.33;100283.31;5014165;28;20038;-43
2021/07/30 09:01:27;;;;;;;3.70;3.40;;;;;;;19.82;57.50;100288.59;4990871;28;20029;-43
2021/07/30 09:03:53;;;;;;;4.72;3.58;;;;;;;19.81;57.38;100286.84;4992782;28;20133;-43
2021/07/30 09:06:20;;;;;;;5.43;3.65;;;;;;;19.82;57.44;100290.38;4962013;28;20022;-43
2021/07/30 09:09:07;;;;;;;3.72;3.42;;;;;;;19.82;57.41;100285.91;4994509;28;20371;-43
2021/07/30 09:11:37;;;;;;;4.55;4.15;;;;;;;19.83;57.24;100287.63;5011168;28;20109;-43
2021/07/30 09:14:05;;;;;;;3.83;3.50;;;;;;;19.85;58.20;100279.53;5011792;28;20090;-43
2021/07/30 09:16:31;;;;;;;4.05;3.65;;;;;;;19.84;57.73;100281.31;4993974;28;20264;-43
2021/07/30 09:19:04;;;;;;;4.03;3.63;;;;;;;19.85;57.78;100274.19;4978226;28;20372;-43
2021/07/30 09:21:32;;;;;;;3.60;3.30;;;;;;;19.85;57.76;100277.69;5010333;28;20021;-43
2021/07/30 09:24:05;;;;;;;4.20;3.90;;;;;;;19.84;57.88;100275.13;5008864;28;20053;-43
2021/07/30 09:26:48;;;;;;;4.25;3.70;;;;;;;19.84;58.05;100270.63;4993822;28;20092;-43
2021/07/30 09:29:19;;;;;;;4.38;3.97;;;;;;;19.85;57.93;100274.19;5012490;28;20018;-43
2021/07/30 09:31:49;;;;;;;4.30;3.90;;;;;;;19.85;57.45;100269.66;5008669;28;20457;-42
2021/07/30 09:34:19;;;;;;;4.05;3.63;;;;;;;19.86;57.80;100265.19;4996374;28;20088;-43
2021/07/30 09:37:08;;;;;;;3.92;3.60;;;;;;;19.86;57.67;100266.06;5009904;28;20022;-43
2021/07/30 09:39:33;;;;;;;3.95;3.65;;;;;;;19.88;57.45;100266.00;5011518;28;20029;-43
2021/07/30 09:42:06;;;;;;;3.70;3.37;;;;;;;19.88;57.59;100274.84;5015737;28;20172;-43
2021/07/30 09:44:33;;;;;;;4.07;3.67;;;;;;;19.87;57.65;100262.44;4997353;28;20269;-43
2021/07/30 09:47:01;;;;;;;4.22;3.83;;;;;;;19.86;57.58;100266.06;4997542;28;20021;-43
2021/07/30 09:49:49;;;;;;;3.97;3.67;;;;;;;19.87;57.69;100267.78;4996389;28;20057;-43
2021/07/30 09:52:23;;;;;;;3.80;3.50;;;;;;;19.88;57.70;100257.97;5011926;28;20026;-43
2021/07/30 09:54:51;;;;;;;3.55;3.25;;;;;;;19.87;57.45;100253.53;5011854;28;20026;-43
2021/07/30 09:57:30;;;;;;;4.15;3.80;;;;;;;19.87;57.45;100243.72;5013275;28;20437;-43
2021/07/30 10:00:03;;;;;;;4.35;3.45;;;;;;;19.86;57.73;100239.31;5012238;28;20025;-43
2021/07/30 10:02:30;;;;;;;4.95;3.40;;;;;;;19.88;57.89;100242.75;5012472;28;20053;-43
2021/07/30 10:04:57;;;;;;;4.70;3.72;;;;;;;19.90;57.67;100239.16;5013910;28;20026;-43
2021/07/30 10:07:24;;;;;;;4.80;4.40;;;;;;;19.86;57.66;100239.31;4979530;28;20076;-43
2021/07/30 10:10:08;;;;;;;3.92;3.53;;;;;;;19.88;57.28;100232.03;4996736;28;20018;-42
2021/07/30 10:12:37;;;;;;;3.75;3.45;;;;;;;19.91;57.56;100233.69;5001150;28;20383;-42
2021/07/30 10:15:04;;;;;;;4.32;3.85;;;;;;;19.90;57.31;100233.78;4997698;28;20026;-42
2021/07/30 10:17:34;;;;;;;3.78;3.47;;;;;;;19.89;57.51;100227.56;4995686;28;20568;-42
2021/07/30 10:20:05;;;;;;;4.18;3.88;;;;;;;19.92;57.21;100210.47;4999741;28;20041;-42
2021/07/30 10:22:55;;;;;;;4.22;3.90;;;;;;;19.90;57.24;100212.38;5012750;28;20068;-42
2021/07/30 10:25:22;;;;;;;4.10;3.45;;;;;;;19.91;57.15;100208.75;4972878;28;20088;-42
2021/07/30 10:27:48;;;;;;;3.63;3.33;;;;;;;19.91;57.20;100206.06;4994608;28;20050;-42
2021/07/30 10:30:15;;;;;;;4.32;3.92;;;;;;;19.92;57.27;100199.75;5014592;28;20049;-43
2021/07/30 10:32:54;;;;;;;4.10;3.80;;;;;;;19.93;57.23;100198.81;4978724;28;20080;-43
2021/07/30 10:35:25;;;;;;;4.03;3.72;;;;;;;19.93;57.20;100183.63;5015269;28;20021;-42
2021/07/30 10:37:51;;;;;;;3.90;3.60;;;;;;;19.93;57.48;100180.94;5019896;28;20670;-42
2021/07/30 10:40:21;;;;;;;3.90;3.60;;;;;;;19.93;57.21;100183.63;5011419;28;20117;-42
2021/07/30 10:43:09;;;;;;;3.95;3.65;;;;;;;19.95;57.21;100183.53;4997669;28;20915;-42
2021/07/30 10:45:44;;;;;;;4.45;4.03;;;;;;;19.93;57.18;100180.06;4993680;28;20506;-43
2021/07/30 10:48:21;;;;;;;4.28;3.83;;;;;;;19.94;57.15;100166.63;4996938;28;20033;-43
2021/07/30 10:50:48;;;;;;;3.78;3.47;;;;;;;19.96;57.09;100169.22;5013022;28;20030;-43
2021/07/30 10:53:34;;;;;;;3.63;3.33;;;;;;;19.97;57.51;100166.44;5014720;28;20099;-43
2021/07/30 10:56:01;;;;;;;4.82;3.95;;;;;;;19.95;57.39;100171.03;5019935;28;20021;-42
2021/07/30 10:58:39;;;;;;;5.07;3.75;;;;;;;19.96;57.50;100153.16;4998544;28;20040;-43
2021/07/30 11:01:04;;;;;;;4.10;3.80;;;;;;;19.98;57.12;100151.25;5016093;28;20083;-43
2021/07/30 11:03:52;;;;;;;3.80;3.50;;;;;;;19.98;57.42;100157.47;4993886;28;20038;-43
2021/07/30 11:06:27;;;;;;;3.97;3.70;;;;;;;19.99;57.26;100142.28;5012235;28;20029;-43
2021/07/30 11:08:58;;;;;;;4.30;3.53;;;;;;;19.98;57.16;100141.41;5013568;28;20111;-43
2021/07/30 11:11:45;;;;;;;4.15;3.88;;;;;;;20.00;57.28;100149.38;5013048;28;20017;-43
2021/07/30 11:14:14;;;;;;;3.97;3.67;;;;;;;20.01;57.21;100156.47;5011789;28;20053;-43
2021/07/30 11:17:03;;;;;;;4.68;4.28;;;;;;;20.02;57.22;100151.97;5012669;28;20087;-43
2021/07/30 11:19:40;;;;;;;3.67;3.38;;;;;;;20.01;56.90;100145.78;5012283;28;20026;-43
2021/07/30 11:22:19;;;;;;;3.92;3.42;;;;;;;20.03;57.20;100135.81;4994765;28;20029;-43
2021/07/30 11:24:50;;;;;;;4.20;3.80;;;;;;;20.03;57.16;100133.16;5013444;28;20169;-43
2021/07/30 11:27:17;;;;;;;5.72;3.97;;;;;;;20.05;57.30;100122.34;5016078;28;20029;-43